createdAt,value
2022-11-26T00:00:45.685Z,26.43
2022-11-26T00:03:13.812Z,26.23
2022-11-26T00:05:43.223Z,25.93
2022-11-26T00:08:15.797Z,27.10
2022-11-26T00:10:43.113Z,28.43
2022-11-26T00:13:17.571Z,28.70
2022-11-26T00:15:44.897Z,30.50
2022-11-26T00:18:13.653Z,30.17
2022-11-26T00:20:40.804Z,32.33
2022-11-26T00:23:08.235Z,32.93
2022-11-26T00:25:43.416Z,33.90
2022-11-26T00:28:22.731Z,32.40
2022-11-26T00:30:50.034Z,31.63
2022-11-26T00:33:17.770Z,32.17
2022-11-26T00:35:47.039Z,32.30
2022-11-26T00:38:16.908Z,32.10
2022-11-26T00:40:43.851Z,33.47
2022-11-26T00:43:11.558Z,36.60
2022-11-26T00:45:38.763Z,35.93
2022-11-26T00:48:06.042Z,33.73
2022-11-26T00:50:45.284Z,31.87
2022-11-26T00:53:17.205Z,33.63
2022-11-26T00:55:46.174Z,30.27
2022-11-26T00:58:23.866Z,30.73
2022-11-26T01:00:51.797Z,24.63
2022-11-26T01:03:18.621Z,24.83
2022-11-26T01:05:45.585Z,25.93
2022-11-26T01:08:30.029Z,26.83
2022-11-26T01:10:58.560Z,26.10
2022-11-26T01:13:25.610Z,25.57
2022-11-26T01:15:52.475Z,24.13
2022-11-26T01:18:20.961Z,28.07
2022-11-26T01:20:48.330Z,26.67
2022-11-26T01:23:17.212Z,25.03
2022-11-26T01:25:44.424Z,25.53
2022-11-26T01:28:13.427Z,25.27
2022-11-26T01:30:41.221Z,24.90
2022-11-26T01:33:08.408Z,24.67
2022-11-26T01:35:35.697Z,26.63
2022-11-26T01:38:02.668Z,26.93
2022-11-26T01:40:32.912Z,26.57
2022-11-26T01:43:01.843Z,25.33
2022-11-26T01:45:28.723Z,25.57
2022-11-26T01:47:55.631Z,27.47
2022-11-26T01:50:31.435Z,28.20
2022-11-26T01:53:02.977Z,30.33
2022-11-26T01:55:35.266Z,28.80
2022-11-26T01:58:02.722Z,29.43
2022-11-26T02:00:29.520Z,29.60
2022-11-26T02:02:56.724Z,30.47
2022-11-26T02:05:24.744Z,27.67
2022-11-26T02:07:53.037Z,27.50
2022-11-26T02:10:19.999Z,28.37
2022-11-26T02:12:47.360Z,28.30
2022-11-26T02:15:14.350Z,26.77
2022-11-26T02:17:47.233Z,28.73
2022-11-26T02:20:14.110Z,27.93
2022-11-26T02:22:50.118Z,26.57
2022-11-26T02:25:24.568Z,29.03
2022-11-26T02:27:51.759Z,28.17
2022-11-26T02:30:18.810Z,30.40
2022-11-26T02:32:51.621Z,30.60
2022-11-26T02:35:22.860Z,30.23
2022-11-26T02:38:02.087Z,28.33
2022-11-26T02:40:28.956Z,29.00
2022-11-26T02:42:55.853Z,28.77
2022-11-26T02:45:25.359Z,29.47
2022-11-26T02:47:56.968Z,29.20
2022-11-26T02:50:29.098Z,26.80
2022-11-26T02:52:57.450Z,33.03
2022-11-26T02:55:26.468Z,38.60
2022-11-26T02:57:54.044Z,30.67
2022-11-26T03:00:21.357Z,28.40
2022-11-26T03:02:48.202Z,27.93
2022-11-26T03:05:16.807Z,28.43
2022-11-26T03:07:44.215Z,26.80
2022-11-26T03:10:11.087Z,25.93
2022-11-26T03:12:38.005Z,29.17
2022-11-26T03:15:05.092Z,28.70
2022-11-26T03:17:31.923Z,29.60
2022-11-26T03:19:58.871Z,28.57
2022-11-26T03:22:25.683Z,27.73
2022-11-26T03:24:52.653Z,36.07
2022-11-26T03:27:19.421Z,28.67
2022-11-26T03:29:46.240Z,27.77
2022-11-26T03:32:13.208Z,25.33
2022-11-26T03:34:40.399Z,27.50
2022-11-26T03:37:07.474Z,27.37
2022-11-26T03:39:34.404Z,26.17
2022-11-26T03:42:01.182Z,26.97
2022-11-26T03:44:28.049Z,26.63
2022-11-26T03:46:54.844Z,27.63
2022-11-26T03:49:21.805Z,27.63
2022-11-26T03:51:48.577Z,26.73
2022-11-26T03:54:15.458Z,25.13
2022-11-26T03:56:42.406Z,26.37
2022-11-26T03:59:09.370Z,25.97
2022-11-26T04:01:36.249Z,24.87
2022-11-26T04:04:03.442Z,25.30
2022-11-26T04:06:30.338Z,23.90
2022-11-26T04:08:57.234Z,25.03
2022-11-26T04:11:24.090Z,25.20
2022-11-26T04:13:50.910Z,25.70
2022-11-26T04:16:17.898Z,25.37
2022-11-26T04:18:44.745Z,24.57
2022-11-26T04:21:11.607Z,26.30
2022-11-26T04:23:38.455Z,24.60
2022-11-26T04:26:05.349Z,25.47
2022-11-26T04:28:32.264Z,27.10
2022-11-26T04:30:59.074Z,27.93
2022-11-26T04:33:28.645Z,24.67
2022-11-26T04:35:55.581Z,24.53
2022-11-26T04:38:25.704Z,25.23
2022-11-26T04:40:52.973Z,25.80
2022-11-26T04:43:19.804Z,29.20
2022-11-26T04:45:46.767Z,25.77
2022-11-26T04:48:13.650Z,28.40
2022-11-26T04:50:40.558Z,27.77
2022-11-26T04:53:07.448Z,26.93
2022-11-26T04:55:34.350Z,23.50
2022-11-26T04:58:01.188Z,23.23
2022-11-26T05:00:28.299Z,24.30
2022-11-26T05:02:55.302Z,24.77
2022-11-26T05:05:22.170Z,24.40
2022-11-26T05:07:49.072Z,23.37
2022-11-26T05:10:16.070Z,22.50
2022-11-26T05:12:43.367Z,23.30
2022-11-26T05:15:10.436Z,23.20
2022-11-26T05:17:37.237Z,23.33
2022-11-26T05:20:05.086Z,23.83
2022-11-26T05:22:31.864Z,23.53
2022-11-26T05:24:58.834Z,23.57
2022-11-26T05:27:25.669Z,24.37
2022-11-26T05:29:52.492Z,24.33
2022-11-26T05:32:19.347Z,23.17
2022-11-26T05:34:46.181Z,24.37
2022-11-26T05:37:13.088Z,24.80
2022-11-26T05:39:40.015Z,22.63
2022-11-26T05:42:09.327Z,25.53
2022-11-26T05:44:37.226Z,27.47
2022-11-26T05:47:04.442Z,24.53
2022-11-26T05:49:31.328Z,32.70
2022-11-26T05:51:58.116Z,28.73
2022-11-26T05:54:24.959Z,25.57
2022-11-26T05:56:56.915Z,27.87
2022-11-26T05:59:26.804Z,25.10
2022-11-26T06:01:53.659Z,32.10
2022-11-26T06:04:20.589Z,28.20
2022-11-26T06:06:47.506Z,25.07
2022-11-26T06:09:14.677Z,24.67
2022-11-26T06:11:41.456Z,26.73
2022-11-26T06:14:08.922Z,28.73
2022-11-26T06:16:35.827Z,25.67
2022-11-26T06:19:02.724Z,23.97
2022-11-26T06:21:29.524Z,25.43
2022-11-26T06:23:59.631Z,24.47
2022-11-26T06:26:26.937Z,24.40
2022-11-26T06:28:53.844Z,22.23
2022-11-26T06:31:20.765Z,23.80
2022-11-26T06:33:47.819Z,24.13
2022-11-26T06:36:14.618Z,25.23
2022-11-26T06:38:41.485Z,23.33
2022-11-26T06:41:08.627Z,22.27
2022-11-26T06:43:36.007Z,22.20
2022-11-26T06:46:04.436Z,23.07
2022-11-26T06:48:31.919Z,27.00
2022-11-26T06:51:03.366Z,36.03
2022-11-26T06:53:30.385Z,23.00
2022-11-26T06:55:59.802Z,22.97
2022-11-26T06:58:26.736Z,23.90
2022-11-26T07:00:53.583Z,24.67
2022-11-26T07:03:24.254Z,22.57
2022-11-26T07:05:52.557Z,23.63
2022-11-26T07:08:19.497Z,24.73
2022-11-26T07:10:49.194Z,22.67
2022-11-26T07:13:16.272Z,22.53
2022-11-26T07:15:43.152Z,23.60
2022-11-26T07:18:10.123Z,22.43
2022-11-26T07:20:37.410Z,22.13
2022-11-26T07:23:04.925Z,22.17
2022-11-26T07:25:32.274Z,22.80
2022-11-26T07:27:59.079Z,22.77
2022-11-26T07:30:26.113Z,24.07
2022-11-26T07:32:52.997Z,23.57
2022-11-26T07:35:19.972Z,24.57
2022-11-26T07:37:46.824Z,26.57
2022-11-26T07:40:14.016Z,27.67
2022-11-26T07:42:40.820Z,25.03
2022-11-26T07:45:07.913Z,24.53
2022-11-26T07:47:34.806Z,27.83
2022-11-26T07:50:01.638Z,22.07
2022-11-26T07:52:28.649Z,23.03
2022-11-26T07:54:55.556Z,21.87
2022-11-26T07:57:23.261Z,23.53
2022-11-26T07:59:50.072Z,22.47
2022-11-26T08:02:17.103Z,22.97
2022-11-26T08:04:44.088Z,22.43
2022-11-26T08:07:12.044Z,23.07
2022-11-26T08:09:41.571Z,22.73
2022-11-26T08:12:08.341Z,22.93
2022-11-26T08:14:35.309Z,23.53
2022-11-26T08:17:02.086Z,23.90
2022-11-26T08:19:28.942Z,24.33
2022-11-26T08:21:55.822Z,23.33
2022-11-26T08:24:23.950Z,24.13
2022-11-26T08:26:51.137Z,23.87
2022-11-26T08:29:17.986Z,25.43
2022-11-26T08:31:46.508Z,23.30
2022-11-26T08:34:15.267Z,23.97
2022-11-26T08:36:42.478Z,22.23
2022-11-26T08:39:10.631Z,22.83
2022-11-26T08:41:37.393Z,23.53
2022-11-26T08:44:06.557Z,25.27
2022-11-26T08:46:35.172Z,25.53
2022-11-26T08:49:02.134Z,24.23
2022-11-26T08:51:29.089Z,23.27
2022-11-26T08:53:55.957Z,25.73
2022-11-26T08:56:22.894Z,22.87
2022-11-26T08:58:51.826Z,23.23
2022-11-26T09:01:23.247Z,23.90
2022-11-26T09:03:50.908Z,24.67
2022-11-26T09:06:18.574Z,28.87
2022-11-26T09:09:05.487Z,27.77
2022-11-26T09:11:33.391Z,28.73
2022-11-26T09:14:00.256Z,25.33
2022-11-26T09:16:27.442Z,27.53
2022-11-26T09:18:54.487Z,25.43
2022-11-26T09:21:21.808Z,23.40
2022-11-26T09:23:48.738Z,21.50
2022-11-26T09:26:15.663Z,21.17
2022-11-26T09:28:42.573Z,20.63
2022-11-26T09:31:09.366Z,21.47
2022-11-26T09:33:36.277Z,21.03
2022-11-26T09:36:03.817Z,20.47
2022-11-26T09:38:30.803Z,21.20
2022-11-26T09:41:03.758Z,21.40
2022-11-26T09:43:38.912Z,20.57
2022-11-26T09:46:05.855Z,20.13
2022-11-26T09:48:34.159Z,18.77
2022-11-26T09:51:04.609Z,19.30
2022-11-26T09:53:32.765Z,17.53
2022-11-26T09:56:01.331Z,16.43
2022-11-26T09:58:33.116Z,18.03
2022-11-26T10:01:01.044Z,16.80
2022-11-26T10:03:32.253Z,14.10
2022-11-26T10:06:17.282Z,15.23
2022-11-26T10:08:47.855Z,14.47
2022-11-26T10:11:21.861Z,14.83
2022-11-26T10:13:48.756Z,15.77
2022-11-26T10:16:15.626Z,14.33
2022-11-26T10:18:45.499Z,13.80
2022-11-26T10:21:57.190Z,14.80
2022-11-26T10:24:28.763Z,16.13
2022-11-26T10:26:56.260Z,15.47
2022-11-26T10:29:24.618Z,14.30
2022-11-26T10:31:55.166Z,15.40
2022-11-26T10:34:39.508Z,14.00
2022-11-26T10:37:06.686Z,15.07
2022-11-26T10:39:33.516Z,13.47
2022-11-26T10:42:04.839Z,15.13
2022-11-26T10:44:31.699Z,13.93
2022-11-26T10:46:59.008Z,12.00
2022-11-26T10:49:29.569Z,13.07
2022-11-26T10:51:58.401Z,13.83
2022-11-26T10:54:27.175Z,11.60
2022-11-26T10:56:55.124Z,11.13
2022-11-26T10:59:36.565Z,13.70
2022-11-26T11:02:22.256Z,11.13
2022-11-26T11:04:53.504Z,13.60
2022-11-26T11:07:41.414Z,11.97
2022-11-26T11:10:10.080Z,9.10
2022-11-26T11:12:37.716Z,11.83
2022-11-26T11:15:21.709Z,9.97
2022-11-26T11:18:06.770Z,9.23
2022-11-26T11:20:37.975Z,9.87
2022-11-26T11:23:11.117Z,11.40
2022-11-26T11:25:46.168Z,10.97
2022-11-26T11:28:13.135Z,9.20
2022-11-26T11:30:41.286Z,10.50
2022-11-26T11:33:16.643Z,9.40
2022-11-26T11:35:43.555Z,8.90
2022-11-26T11:38:23.837Z,9.27
2022-11-26T11:40:51.034Z,9.63
2022-11-26T11:43:19.929Z,10.00
2022-11-26T11:45:53.558Z,9.40
2022-11-26T11:48:53.310Z,9.27
2022-11-26T11:51:33.336Z,7.90
2022-11-26T11:54:04.678Z,7.20
2022-11-26T11:56:54.682Z,9.60
2022-11-26T11:59:47.738Z,8.07
2022-11-26T12:02:32.305Z,8.97
2022-11-26T12:05:04.147Z,8.83
2022-11-26T12:07:48.557Z,8.67
2022-11-26T12:10:35.610Z,8.97
2022-11-26T12:13:05.673Z,8.00
2022-11-26T12:15:36.026Z,7.60
2022-11-26T12:18:18.520Z,6.57
2022-11-26T12:20:49.504Z,7.50
2022-11-26T12:23:21.236Z,6.60
2022-11-26T12:26:09.954Z,7.43
2022-11-26T12:28:55.424Z,9.27
2022-11-26T12:32:00.719Z,16.23
2022-11-26T12:34:33.284Z,7.13
2022-11-26T12:37:03.221Z,6.67
2022-11-26T12:39:36.372Z,6.60
2022-11-26T12:42:07.709Z,6.80
2022-11-26T12:44:39.929Z,6.83
2022-11-26T12:47:07.181Z,8.03
2022-11-26T12:49:38.237Z,7.30
2022-11-26T12:52:08.188Z,7.80
2022-11-26T12:54:49.067Z,9.23
2022-11-26T12:57:24.212Z,8.90
2022-11-26T13:00:00.817Z,9.60
2022-11-26T13:02:33.153Z,9.60
2022-11-26T13:05:00.186Z,7.67
2022-11-26T13:07:39.522Z,8.67
2022-11-26T13:10:09.537Z,7.93
2022-11-26T13:12:39.373Z,8.00
2022-11-26T13:15:21.809Z,7.83
2022-11-26T13:17:49.978Z,7.83
2022-11-26T13:20:29.053Z,7.50
2022-11-26T13:23:22.116Z,8.70
2022-11-26T13:26:07.213Z,12.10
2022-11-26T13:28:37.149Z,12.57
2022-11-26T13:31:26.748Z,10.60
2022-11-26T13:33:53.645Z,12.77
2022-11-26T13:36:28.081Z,17.43
2022-11-26T13:39:23.431Z,17.63
2022-11-26T13:41:50.248Z,21.13
2022-11-26T13:44:24.324Z,22.23
2022-11-26T13:46:57.548Z,17.60
2022-11-26T13:49:27.738Z,15.63
2022-11-26T13:51:54.544Z,10.77
2022-11-26T13:54:30.222Z,19.20
2022-11-26T13:56:59.609Z,11.87
2022-11-26T13:59:28.807Z,11.90
2022-11-26T14:01:56.400Z,11.73
2022-11-26T14:04:23.292Z,11.37
2022-11-26T14:07:10.535Z,11.50
2022-11-26T14:09:43.268Z,11.77
2022-11-26T14:12:16.506Z,11.50
2022-11-26T14:14:43.800Z,11.67
2022-11-26T14:17:11.600Z,11.60
2022-11-26T14:19:41.536Z,16.17
2022-11-26T14:22:25.789Z,15.93
2022-11-26T14:24:54.027Z,14.43
2022-11-26T14:27:29.737Z,18.73
2022-11-26T14:30:09.079Z,18.13
2022-11-26T14:32:40.826Z,16.07
2022-11-26T14:35:18.037Z,13.33
2022-11-26T14:37:50.636Z,12.03
2022-11-26T14:40:22.324Z,13.07
2022-11-26T14:42:49.169Z,36.53
2022-11-26T14:45:19.736Z,16.93
2022-11-26T14:47:49.170Z,31.33
2022-11-26T14:50:17.590Z,28.57
2022-11-26T14:52:45.261Z,26.57
2022-11-26T14:55:24.176Z,33.83
2022-11-26T14:57:51.115Z,15.47
2022-11-26T15:00:18.324Z,12.80
2022-11-26T15:02:46.118Z,16.33
2022-11-26T15:05:14.917Z,21.87
2022-11-26T15:07:41.970Z,19.03
2022-11-26T15:10:15.107Z,21.13
2022-11-26T15:12:42.844Z,19.07
2022-11-26T15:15:13.423Z,21.20
2022-11-26T15:17:43.221Z,19.03
2022-11-26T15:20:13.197Z,18.90
2022-11-26T15:22:42.704Z,15.30
2022-11-26T15:25:17.920Z,14.77
2022-11-26T15:28:01.425Z,15.73
2022-11-26T15:30:29.758Z,15.07
2022-11-26T15:33:16.873Z,16.87
2022-11-26T15:35:44.064Z,38.10
2022-11-26T15:38:13.144Z,50.87
2022-11-26T15:40:50.867Z,52.53
2022-11-26T15:43:29.383Z,30.27
2022-11-26T15:46:12.512Z,24.27
2022-11-26T15:48:53.373Z,31.13
2022-11-26T15:51:29.421Z,32.13
2022-11-26T15:53:59.729Z,27.87
2022-11-26T15:56:28.804Z,28.40
2022-11-26T15:59:04.816Z,28.63
2022-11-26T16:01:33.729Z,25.93
2022-11-26T16:04:04.776Z,23.87
2022-11-26T16:06:39.094Z,24.07
2022-11-26T16:09:26.176Z,23.40
2022-11-26T16:11:58.508Z,25.03
2022-11-26T16:14:36.157Z,24.87
2022-11-26T16:17:08.594Z,22.53
2022-11-26T16:19:36.250Z,23.43
2022-11-26T16:22:04.912Z,22.67
2022-11-26T16:24:40.313Z,24.13
2022-11-26T16:27:24.531Z,23.50
2022-11-26T16:29:51.403Z,23.63
2022-11-26T16:32:18.917Z,25.70
2022-11-26T16:34:45.872Z,26.10
2022-11-26T16:37:15.636Z,24.77
2022-11-26T16:39:42.533Z,25.03
2022-11-26T16:42:14.740Z,26.50
2022-11-26T16:44:42.163Z,24.30
2022-11-26T16:47:12.996Z,24.33
2022-11-26T16:49:40.026Z,25.37
2022-11-26T16:52:11.800Z,24.07
2022-11-26T16:54:38.857Z,23.87
2022-11-26T16:57:06.747Z,28.10
2022-11-26T16:59:33.773Z,25.43
2022-11-26T17:02:00.642Z,24.50
2022-11-26T17:04:27.613Z,25.73
2022-11-26T17:06:54.446Z,24.93
2022-11-26T17:09:21.347Z,25.67
2022-11-26T17:11:48.824Z,24.03
2022-11-26T17:14:15.804Z,26.43
2022-11-26T17:16:42.743Z,24.67
2022-11-26T17:19:12.646Z,23.13
2022-11-26T17:21:39.569Z,26.33
2022-11-26T17:24:06.588Z,23.27
2022-11-26T17:26:33.508Z,25.23
2022-11-26T17:29:01.420Z,26.80
2022-11-26T17:31:30.032Z,23.87
2022-11-26T17:33:57.169Z,23.87
2022-11-26T17:36:23.945Z,23.77
2022-11-26T17:38:51.288Z,24.40
2022-11-26T17:41:18.455Z,22.90
2022-11-26T17:43:45.328Z,22.20
2022-11-26T17:46:13.870Z,22.47
2022-11-26T17:48:40.752Z,22.37
2022-11-26T17:51:07.645Z,22.83
2022-11-26T17:53:34.494Z,23.53
2022-11-26T17:56:01.298Z,25.10
2022-11-26T17:58:28.232Z,24.37
2022-11-26T18:00:55.088Z,28.13
2022-11-26T18:03:21.935Z,36.33
2022-11-26T18:05:48.777Z,32.13
2022-11-26T18:08:15.657Z,28.33
2022-11-26T18:10:42.627Z,26.53
2022-11-26T18:13:09.434Z,24.63
2022-11-26T18:15:36.280Z,23.80
2022-11-26T18:18:03.184Z,22.03
2022-11-26T18:20:30.192Z,24.03
2022-11-26T18:22:58.943Z,24.87
2022-11-26T18:25:25.877Z,22.77
2022-11-26T18:27:53.697Z,22.50
2022-11-26T18:30:20.897Z,21.33
2022-11-26T18:32:47.694Z,21.13
2022-11-26T18:35:14.760Z,21.20
2022-11-26T18:37:41.629Z,22.20
2022-11-26T18:40:10.419Z,21.70
2022-11-26T18:42:38.208Z,20.83
2022-11-26T18:45:09.854Z,20.97
2022-11-26T18:47:37.622Z,21.00
2022-11-26T18:50:04.750Z,20.30
2022-11-26T18:52:31.583Z,20.40
2022-11-26T18:54:58.553Z,22.10
2022-11-26T18:57:25.398Z,20.00
2022-11-26T18:59:52.217Z,21.77
2022-11-26T19:02:19.429Z,22.33
2022-11-26T19:04:46.320Z,20.70
2022-11-26T19:07:14.320Z,20.83
2022-11-26T19:09:42.295Z,21.60
2022-11-26T19:12:09.381Z,20.53
2022-11-26T19:14:36.276Z,20.60
2022-11-26T19:17:03.287Z,19.20
2022-11-26T19:19:30.471Z,21.50
2022-11-26T19:22:01.133Z,22.37
2022-11-26T19:24:28.896Z,21.77
2022-11-26T19:26:55.957Z,21.23
2022-11-26T19:29:23.314Z,19.60
2022-11-26T19:31:50.258Z,20.63
2022-11-26T19:34:17.471Z,22.67
2022-11-26T19:36:48.756Z,23.37
2022-11-26T19:39:16.409Z,25.40
2022-11-26T19:41:43.592Z,23.00
2022-11-26T19:44:10.753Z,26.47
2022-11-26T19:46:40.976Z,25.23
2022-11-26T19:49:11.361Z,22.20
2022-11-26T19:51:38.261Z,21.73
2022-11-26T19:54:05.190Z,20.40
2022-11-26T19:56:32.687Z,20.47
2022-11-26T19:59:03.316Z,19.20
2022-11-26T20:01:31.564Z,20.43
2022-11-26T20:03:59.605Z,19.70
2022-11-26T20:06:27.239Z,23.07
2022-11-26T20:08:54.659Z,23.87
2022-11-26T20:11:21.639Z,20.60
2022-11-26T20:13:48.732Z,18.40
2022-11-26T20:16:23.106Z,19.47
2022-11-26T20:18:50.109Z,19.20
2022-11-26T20:21:20.061Z,20.30
2022-11-26T20:23:47.711Z,19.60
2022-11-26T20:26:16.191Z,18.83
2022-11-26T20:28:43.389Z,18.60
2022-11-26T20:31:10.578Z,20.77
2022-11-26T20:33:37.551Z,20.43
2022-11-26T20:36:08.383Z,24.00
2022-11-26T20:38:35.819Z,22.20
2022-11-26T20:41:06.723Z,21.17
2022-11-26T20:43:33.848Z,20.87
2022-11-26T20:46:02.199Z,19.67
2022-11-26T20:48:29.202Z,19.37
2022-11-26T20:50:56.073Z,19.97
2022-11-26T20:53:22.961Z,19.73
2022-11-26T20:55:53.452Z,21.63
2022-11-26T20:58:20.788Z,20.87
2022-11-26T21:00:47.755Z,21.93
2022-11-26T21:03:14.536Z,22.33
2022-11-26T21:05:41.466Z,22.20
2022-11-26T21:08:08.416Z,21.93
2022-11-26T21:10:35.230Z,19.80
2022-11-26T21:13:02.203Z,30.23
2022-11-26T21:15:29.022Z,23.97
2022-11-26T21:17:56.032Z,19.33
2022-11-26T21:20:22.949Z,18.60
2022-11-26T21:22:49.885Z,19.43
2022-11-26T21:25:16.753Z,18.53
2022-11-26T21:27:43.568Z,17.97
2022-11-26T21:30:10.821Z,19.03
2022-11-26T21:32:37.605Z,18.43
2022-11-26T21:35:04.831Z,17.80
2022-11-26T21:37:31.665Z,19.13
2022-11-26T21:39:58.536Z,17.17
2022-11-26T21:42:25.334Z,19.20
2022-11-26T21:44:52.200Z,21.80
2022-11-26T21:47:19.150Z,20.53
2022-11-26T21:49:46.060Z,18.57
2022-11-26T21:52:12.864Z,18.70
2022-11-26T21:54:39.741Z,18.87
2022-11-26T21:57:06.541Z,19.13
2022-11-26T21:59:33.478Z,21.57
2022-11-26T22:02:00.431Z,22.63
2022-11-26T22:04:27.534Z,19.97
2022-11-26T22:06:54.510Z,18.77
2022-11-26T22:09:21.660Z,20.00
2022-11-26T22:11:48.789Z,18.40
2022-11-26T22:14:16.285Z,20.30
2022-11-26T22:16:43.273Z,20.13
2022-11-26T22:19:10.350Z,18.37
2022-11-26T22:21:39.375Z,19.40
2022-11-26T22:24:07.537Z,19.13
2022-11-26T22:26:34.542Z,19.50
2022-11-26T22:29:01.466Z,22.50
2022-11-26T22:31:32.636Z,31.17
2022-11-26T22:34:00.953Z,30.67
2022-11-26T22:36:28.272Z,29.30
2022-11-26T22:38:55.236Z,26.90
2022-11-26T22:41:22.398Z,27.67
2022-11-26T22:43:49.259Z,23.83
2022-11-26T22:46:17.392Z,23.90
2022-11-26T22:48:44.516Z,24.03
2022-11-26T22:51:11.547Z,24.40
2022-11-26T22:53:38.363Z,22.73
2022-11-26T22:56:05.559Z,24.60
2022-11-26T22:58:33.833Z,22.43
2022-11-26T23:01:05.985Z,22.47
2022-11-26T23:03:33.959Z,22.00
2022-11-26T23:06:04.986Z,23.40
2022-11-26T23:08:32.059Z,23.40
2022-11-26T23:11:09.256Z,23.57
2022-11-26T23:13:36.392Z,23.47
2022-11-26T23:16:07.154Z,21.60
2022-11-26T23:18:34.696Z,21.87
2022-11-26T23:21:21.306Z,21.03
2022-11-26T23:23:48.316Z,20.67
2022-11-26T23:26:21.673Z,20.13
2022-11-26T23:28:52.381Z,20.37
2022-11-26T23:31:20.851Z,20.80
2022-11-26T23:33:49.466Z,19.67
2022-11-26T23:36:16.530Z,21.47
2022-11-26T23:38:43.421Z,18.73
2022-11-26T23:41:10.668Z,20.43
2022-11-26T23:43:38.239Z,21.10
2022-11-26T23:46:11.644Z,19.70
2022-11-26T23:48:38.668Z,23.50
2022-11-26T23:51:06.558Z,25.27
2022-11-26T23:53:34.827Z,20.73
2022-11-26T23:56:02.798Z,19.70
2022-11-26T23:58:29.930Z,21.07
